This demonstration page uses our WeatherBlox Daily Observations layout. Learn more.

39.29038, -76.61219

Hourly Observations for January 2, 2019

Temp ( °F °C ) Dew Point ( °F °C ) Humidity (%) Winds ( mph kmh ) Pressure ( in mb ) Visibility ( mi km ) Precip ( " mm )
12:54 am 00:54 undefined 44 6.7 34 1.1 68 68 undefined N/A 30.21 1023 N/A 0 0
1:54 am 01:54 undefined 45 7.2 34 1.1 66 66 undefined N/A 30.24 1024 N/A 0 0
2:54 am 02:54 undefined 46 7.8 31 -0.6 56 56 undefined N/A 30.24 1024 N/A 0 0
3:54 am 03:54 undefined 45 7.2 32 0 61 61 undefined N/A 30.21 1023 N/A 0 0
4:54 am 04:54 undefined 45 7.2 32 0 61 61 undefined N/A 30.21 1023 N/A 0 0
5:54 am 05:54 undefined 45 7.2 32 0 61 61 undefined N/A 30.24 1024 N/A 0 0
6:54 am 06:54 undefined 45 7.2 32 0 61 61 undefined N/A 30.3 1026 N/A 0 0
7:54 am 07:54 undefined 45 7.2 33 0.6 63 63 undefined N/A 30.3 1026 N/A 0 0
8:54 am 08:54 undefined 45 7.2 33 0.6 63 63 undefined N/A 30.33 1027 N/A 0 0
9:54 am 09:54 undefined 45 7.2 34 1.1 66 66 undefined N/A 30.33 1027 N/A 0 0
10:54 am 10:54 undefined 44 6.7 34 1.1 68 68 undefined N/A 30.3 1026 N/A 0 0
11:54 am 11:54 undefined 45 7.2 32 0 61 61 undefined N/A 30.3 1026 N/A 0 0
12:54 pm 12:54 undefined 45 7.2 33 0.6 63 63 undefined N/A 30.27 1025 N/A 0 0
1:54 pm 13:54 undefined 45 7.2 32 0 61 61 undefined N/A 30.24 1024 N/A 0 0
2:54 pm 14:54 undefined 45 7.2 33 0.6 63 63 undefined N/A 30.24 1024 N/A 0 0
3:54 pm 15:54 undefined 46 7.8 32 0 58 58 undefined N/A 30.21 1023 N/A 0 0
4:54 pm 16:54 undefined 45 7.2 32 0 61 61 undefined N/A 30.18 1022 N/A 0 0
5:54 pm 17:54 undefined 45 7.2 33 0.6 63 63 undefined N/A 30.18 1022 N/A 0 0
6:54 pm 18:54 undefined 45 7.2 33 0.6 63 63 undefined N/A 30.18 1022 N/A 0 0
7:54 pm 19:54 undefined 45 7.2 34 1.1 66 66 undefined N/A 30.15 1021 N/A 0 0
8:54 pm 20:54 undefined 44 6.7 35 1.7 71 71 undefined N/A 30.12 1020 N/A 0 0
9:54 pm 21:54 undefined 44 6.7 36 2.2 73 73 undefined N/A 30.09 1019 N/A 0 0
10:54 pm 22:54 undefined 44 6.7 37 2.8 76 76 undefined N/A 30.03 1017 N/A 0 0
11:54 pm 23:54 undefined 45 7.2 37 2.8 74 74 undefined N/A 30 1016 N/A 0 0

Powered by AerisWeather